1小时前

塔夫 Brive-Souillac (LFSL)

2022年1月20日 19:002022年1月21日 19:00有效
于2022年1月20日 19:21发行

时间
星期四
19:00
>40%
星期四
20:00
>40%
星期四
21:00
>40%
星期四
22:00
>40%
星期四
23:00
>40%
星期五
00:00
>40%
星期五
01:00
>40%
星期五
02:00
>40%
星期五
03:00
>40%
星期五
04:00
>40%
星期五
05:00
>40%
星期五
06:00
>40%
星期五
07:00
>40%
星期五
08:00
>40%
星期五
09:00
>40%
星期五
10:00
>40%
星期五
11:00
>40%
星期五
12:00
>40%
星期五
13:00
>40%
星期五
14:00
>40%
星期五
15:00
>40%
星期五
16:00
>40%
星期五
17:00
>40%
星期五
18:00
>40%
代码
LIFR
LIFR
LIFR
LIFR
LIFR
LIFR
LIFR
LIFR
LIFR
LIFR
LIFR
LIFR
LIFR
LIFR
LIFR
LIFR
LIFR
LIFR
LIFR
LIFR
LIFR
LIFR
LIFR
LIFR
天气
碎云
碎云
雪 雨
碎云
雪 雨
碎云
雪 雨
碎云
雪 雨
碎云
天空晴朗
天空晴朗
天空晴朗
天空晴朗
天空晴朗
天空晴朗
天空晴朗
天空晴朗
天空晴朗
天空晴朗
天空晴朗
天空晴朗
天空晴朗
天空晴朗
天空晴朗
天空晴朗
天空晴朗
天空晴朗
能见度
0 米
0 米
0 米
0 米
0 米
0 米
0 米
0 米
0 米
0 米
0 米
0 米
0 米
0 米
0 米
0 米
0 米
0 米
0 米
0 米
0 米
0 米
0 米
0 米
天花板
-
-
-
-
-
-
-
-
-
-
-
-
-
-
-
-
-
-
-
-
-
-
-
-
290°
290°
290°
290°
290°
290°
290°
290°
290°
290°
290°
290°
290°
290°
290°
290°
290°
290°
290°
290°
290°
290°
290°
290°
290°
290°
330°
330°
330°
330°
330°
330°
330°
330°
330°
330°
330°
330°
330°
330°
290°
290°
290°
290°
290°
290°
290°
290°
速度
7 千吨
7 千吨
7 千吨
7 千吨
7 千吨
7 千吨
7 千吨
7 千吨
7 千吨
7 千吨
7 千吨
7 千吨
7 千吨
15 千吨
15 千吨
15 千吨
15 千吨
15 千吨
15 千吨
15 千吨
12 千吨
12 千吨
12 千吨
12 千吨
阵风
25 千吨
25 千吨
25 千吨
25 千吨
25 千吨
25 千吨
25 千吨
温度/星期日
08:27
17:50

原版的

TAF LFBE 201700Z 2018/2118 36007KT CAVOK= TAF LYBE 201700Z 2018/2118 29007KT 9999 BKN030 TX03/2112Z TN00/2106Z
TEMPO 2018/2020 5000 RA
TEMPO 2020/2024 3000 SNRA BKN015 BKN027
BECMG 2107/2109 35012KT
TEMPO 2107/2114 33015G25KT

TAF Brive-Souillac

Brive-Souillac是Brive la Gaillarde,法国中的中型机场。 机场有{a,plural,=1{一条跑道} other{#跑道}}: DELETE/DELETE 和 11/29

Brive-Souillac最近未发布观察结果。相反,我们向您显示80 km的报告Bergerac-Roumanière Airport。 该报告是针对2022年1月20日 19:21, 当地时间进行的。 从2022年1月20日 19:00到2022年1月21日 19:00, 当地时间有效.

预报

  • 从星期四 19:00到星期五 19:00

    • 风: 360° (北), 7 千吨

  • 从星期四 19:00到星期五 19:00

    • 风: 290° (西北西), 7 千吨
    • 能见度: 10 公里 或者更多
    • 乌云: 碎云在3.000 ft的高度.
    • 温度: 最低{a,plural,=1{温度},other{温度}}: 0 °C在2022年1月21日在07:00. 最高{a,plural,=1{温度},other{温度}}: 3 °C在2022年1月21日在13:00.

  • 暂时在星期四 19:00和21:00之间

    • 能见度: 5 公里
    • 天气: 雨

  • 暂时在星期四 21:00和星期五 01:00之间

    • 能见度: 3 公里
    • 天气: 雪 雨
    • 乌云: 碎云在1.500 ft的高度 和 碎云在2.700 ft的高度.

  • 介于星期五 08:00和10:00之间

    • 风: 350° (北), 12 千吨

  • 暂时在星期五 08:00和15:00之间

    • 风: 330° (北北西), 15 千吨 预计25 千吨阵风。

白天

今天,太阳从08:25升起,在17:44降落。 这适用于Brive-Souillac,世界夏令时可能有所不同。 当地时间与世界标准时间之间的时差为+1 小时。 当前,没有夏令时有效。